Iliysk North Airport

Jump to: basic info | weather | comments

Related pages: nearby airports | nearby navaids

Basic information (top)

Location: lon 43.998299, lat 77.139099, elev 2,343 ft / 714 m msl
Status: small_airport

Weather (top)

Current conditions for Almaty Airport 39nm (72km) S (rec'd 2014/04/21 14:30Z):

UAAA 211430Z 13003MPS 3500 FU BKN100 BKN200 16/03 Q1011 88CLRD65 NOSIG

Airport forecast for Almaty Airport 39nm (72km) S (rec'd 2014/04/21 12:18Z):

TAF TAF UAAA 211100Z 2112/2212 26006MPS 5000 FU BKN050CB BKN100 TX18/2206Z TN08/2201Z 
      TEMPO 2112/2116 VRB15MPS 2000 TSRA SQ 
      TEMPO 2116/2203 VRB15MPS 2000 TSRA SQ BKN010CB BKN100 
      BECMG 2203/2204 32007MPS 3000 -SHRA BR BKN005 OVC010CB

Latest comments (top)

No comments yet for Iliysk North Airport

More... (top)

See also NOTAMs and nearby airports and navaids, or visit the Iliysk North Airport page at the main OurAirports website..